createdAt,value
2023-05-02T00:00:36.627Z,118.10
2023-05-02T00:03:17.501Z,154.40
2023-05-02T00:05:45.628Z,90.00
2023-05-02T00:08:13.584Z,254.50
2023-05-02T00:10:41.286Z,652.30
2023-05-02T00:13:09.220Z,1019.30
2023-05-02T00:15:37.071Z,856.30
2023-05-02T00:18:04.884Z,395.60
2023-05-02T00:20:33.151Z,110.10
2023-05-02T00:23:01.112Z,100.50
2023-05-02T00:25:29.226Z,103.50
2023-05-02T00:27:57.304Z,75.00
2023-05-02T00:30:24.978Z,66.40
2023-05-02T00:32:54.398Z,59.00
2023-05-02T00:35:22.357Z,45.00
2023-05-02T00:37:50.228Z,44.90
2023-05-02T00:40:18.012Z,43.00
2023-05-02T00:42:45.819Z,44.70
2023-05-02T00:45:13.635Z,42.00
2023-05-02T00:47:41.548Z,33.70
2023-05-02T00:50:09.565Z,34.70
2023-05-02T00:52:37.832Z,34.70
2023-05-02T00:55:06.059Z,27.00
2023-05-02T00:57:34.169Z,50.30
2023-05-02T01:00:02.488Z,58.00
2023-05-02T01:02:32.871Z,42.30
2023-05-02T01:05:14.966Z,32.00
2023-05-02T01:07:42.784Z,30.50
2023-05-02T01:10:13.641Z,37.00
2023-05-02T01:12:52.822Z,25.30
2023-05-02T01:15:22.676Z,25.80
2023-05-02T01:17:52.374Z,29.60
2023-05-02T01:20:21.810Z,31.40
2023-05-02T01:22:50.207Z,29.00
2023-05-02T01:25:37.023Z,24.90
2023-05-02T01:28:13.905Z,22.50
2023-05-02T01:30:43.452Z,26.10
2023-05-02T01:33:12.411Z,29.00
2023-05-02T01:35:42.112Z,30.30
2023-05-02T01:38:10.136Z,23.10
2023-05-02T01:40:38.430Z,23.70
2023-05-02T01:43:10.340Z,27.00
2023-05-02T01:45:41.208Z,27.80
2023-05-02T01:48:09.732Z,23.90
2023-05-02T01:50:39.426Z,23.70
2023-05-02T01:53:08.846Z,21.80
2023-05-02T01:55:39.752Z,27.20
2023-05-02T01:58:08.147Z,23.20
2023-05-02T02:00:38.732Z,21.60
2023-05-02T02:03:07.580Z,22.90
2023-05-02T02:05:36.902Z,21.10
2023-05-02T02:08:04.911Z,24.00
2023-05-02T02:10:36.827Z,22.50
2023-05-02T02:13:07.565Z,24.30
2023-05-02T02:15:36.275Z,22.30
2023-05-02T02:18:08.103Z,21.80
2023-05-02T02:20:36.172Z,19.80
2023-05-02T02:23:08.535Z,17.30
2023-05-02T02:25:36.546Z,15.20
2023-05-02T02:28:04.627Z,15.00
2023-05-02T02:30:32.880Z,15.80
2023-05-02T02:33:00.756Z,19.60
2023-05-02T02:35:35.704Z,14.50
2023-05-02T02:38:22.356Z,14.90
2023-05-02T02:40:55.148Z,12.90
2023-05-02T02:43:38.142Z,14.60
2023-05-02T02:46:17.012Z,16.00
2023-05-02T02:49:23.464Z,20.90
2023-05-02T02:51:58.869Z,19.80
2023-05-02T02:54:33.539Z,19.50
2023-05-02T02:57:27.249Z,22.50
2023-05-02T03:00:24.329Z,19.20
2023-05-02T03:02:53.417Z,27.00
2023-05-02T03:05:22.294Z,36.80
2023-05-02T03:07:51.172Z,28.40
2023-05-02T03:10:19.128Z,31.90
2023-05-02T03:12:50.326Z,24.70
2023-05-02T03:15:33.712Z,18.20
2023-05-02T03:18:01.641Z,19.10
2023-05-02T03:20:29.445Z,15.90
2023-05-02T03:22:57.304Z,18.90
2023-05-02T03:25:25.315Z,21.50
2023-05-02T03:27:54.184Z,16.50
2023-05-02T03:30:21.875Z,16.90
2023-05-02T03:32:50.055Z,17.40
2023-05-02T03:35:18.402Z,12.00
2023-05-02T03:37:46.172Z,12.60
2023-05-02T03:40:14.889Z,9.40
2023-05-02T03:42:42.720Z,10.80
2023-05-02T03:45:10.799Z,9.60
2023-05-02T03:47:39.211Z,11.60
2023-05-02T03:50:07.525Z,12.20
2023-05-02T03:52:35.494Z,15.80
2023-05-02T03:55:04.114Z,11.10
2023-05-02T03:57:37.535Z,14.40
2023-05-02T04:00:05.963Z,11.70
2023-05-02T04:02:37.047Z,16.40
2023-05-02T04:05:05.295Z,13.00
2023-05-02T04:07:33.097Z,11.50
2023-05-02T04:10:01.168Z,9.40
2023-05-02T04:12:31.696Z,13.00
2023-05-02T04:14:59.702Z,10.80
2023-05-02T04:17:27.488Z,10.80
2023-05-02T04:19:55.404Z,10.30
2023-05-02T04:22:23.341Z,13.80
2023-05-02T04:24:51.118Z,11.50
2023-05-02T04:27:18.995Z,12.20
2023-05-02T04:29:50.502Z,11.50
2023-05-02T04:32:18.416Z,11.20
2023-05-02T04:34:48.967Z,12.30
2023-05-02T04:37:17.045Z,11.50
2023-05-02T04:39:44.704Z,12.00
2023-05-02T04:42:12.609Z,11.20
2023-05-02T04:44:40.646Z,10.80
2023-05-02T04:47:08.368Z,12.60
2023-05-02T04:49:36.303Z,12.90
2023-05-02T04:52:04.077Z,11.20
2023-05-02T04:54:32.930Z,11.20
2023-05-02T04:57:03.563Z,10.50
2023-05-02T04:59:31.543Z,10.00
2023-05-02T05:01:59.493Z,12.30
2023-05-02T05:04:27.371Z,12.50
2023-05-02T05:06:55.337Z,11.40
2023-05-02T05:09:23.288Z,12.80
2023-05-02T05:11:53.495Z,12.60
2023-05-02T05:14:24.327Z,11.20
2023-05-02T05:16:55.544Z,10.60
2023-05-02T05:19:23.257Z,10.80
2023-05-02T05:21:51.186Z,11.70
2023-05-02T05:24:22.112Z,12.20
2023-05-02T05:26:49.896Z,12.60
2023-05-02T05:29:19.095Z,16.00
2023-05-02T05:31:47.548Z,11.50
2023-05-02T05:34:15.663Z,15.30
2023-05-02T05:36:43.558Z,10.70
2023-05-02T05:39:11.386Z,10.00
2023-05-02T05:41:39.515Z,12.80
2023-05-02T05:44:07.245Z,11.60
2023-05-02T05:46:35.097Z,11.20
2023-05-02T05:49:03.125Z,10.90
2023-05-02T05:51:33.881Z,12.10
2023-05-02T05:54:02.234Z,9.20
2023-05-02T05:56:29.986Z,16.00
2023-05-02T05:58:57.766Z,12.00
2023-05-02T06:01:25.502Z,12.80
2023-05-02T06:03:53.295Z,12.30
2023-05-02T06:06:21.294Z,14.80
2023-05-02T06:08:49.240Z,13.20
2023-05-02T06:11:16.977Z,14.70
2023-05-02T06:13:44.940Z,12.30
2023-05-02T06:16:12.763Z,12.20
2023-05-02T06:18:40.559Z,12.10
2023-05-02T06:21:08.300Z,10.90
2023-05-02T06:23:38.907Z,11.30
2023-05-02T06:26:06.840Z,9.90
2023-05-02T06:28:34.609Z,11.40
2023-05-02T06:31:03.473Z,13.00
2023-05-02T06:33:31.778Z,10.90
2023-05-02T06:36:01.645Z,10.80
2023-05-02T06:38:30.625Z,10.50
2023-05-02T06:40:58.311Z,10.20
2023-05-02T06:43:26.241Z,12.60
2023-05-02T06:45:55.036Z,12.30
2023-05-02T06:48:22.920Z,11.30
2023-05-02T06:50:56.777Z,9.80
2023-05-02T06:53:24.651Z,10.10
2023-05-02T06:55:53.222Z,8.20
2023-05-02T06:58:20.965Z,9.30
2023-05-02T07:00:49.572Z,9.10
2023-05-02T07:03:17.483Z,11.00
2023-05-02T07:05:45.347Z,10.50
2023-05-02T07:08:13.467Z,9.40
2023-05-02T07:10:41.524Z,8.00
2023-05-02T07:13:09.269Z,11.10
2023-05-02T07:15:37.131Z,8.30
2023-05-02T07:18:05.001Z,10.10
2023-05-02T07:20:32.791Z,7.70
2023-05-02T07:23:00.692Z,7.50
2023-05-02T07:25:28.468Z,8.50
2023-05-02T07:27:56.556Z,8.50
2023-05-02T07:30:24.475Z,8.20
2023-05-02T07:32:52.464Z,7.50
2023-05-02T07:35:20.304Z,6.30
2023-05-02T07:37:48.068Z,6.00
2023-05-02T07:40:16.058Z,5.50
2023-05-02T07:42:44.376Z,8.00
2023-05-02T07:45:12.316Z,7.30
2023-05-02T07:47:40.203Z,6.50
2023-05-02T07:50:09.143Z,6.90
2023-05-02T07:52:36.791Z,12.80
2023-05-02T07:55:05.241Z,6.70
2023-05-02T07:57:33.042Z,7.10
2023-05-02T08:00:01.146Z,7.60
2023-05-02T08:02:29.265Z,7.30
2023-05-02T08:04:57.528Z,6.70
2023-05-02T08:07:25.430Z,5.10
2023-05-02T08:09:53.235Z,8.90
2023-05-02T08:12:21.043Z,6.20
2023-05-02T08:14:48.750Z,6.90
2023-05-02T08:17:16.703Z,9.60
2023-05-02T08:19:44.562Z,10.80
2023-05-02T08:22:12.350Z,9.70
2023-05-02T08:24:40.340Z,7.20
2023-05-02T08:27:08.260Z,7.60
2023-05-02T08:29:36.049Z,8.30
2023-05-02T08:32:04.123Z,7.80
2023-05-02T08:34:33.887Z,10.60
2023-05-02T08:37:01.847Z,8.60
2023-05-02T08:39:32.935Z,7.90
2023-05-02T08:42:00.962Z,6.80
2023-05-02T08:44:28.978Z,8.70
2023-05-02T08:46:57.604Z,8.40
2023-05-02T08:49:25.590Z,9.60
2023-05-02T08:51:54.162Z,7.90
2023-05-02T08:54:25.725Z,8.40
2023-05-02T08:56:56.478Z,9.00
2023-05-02T08:59:24.269Z,11.10
2023-05-02T09:01:55.408Z,8.90
2023-05-02T09:04:24.626Z,11.30
2023-05-02T09:06:52.858Z,9.10
2023-05-02T09:09:20.812Z,8.40
2023-05-02T09:11:49.311Z,6.90
2023-05-02T09:14:17.633Z,8.70
2023-05-02T09:16:45.805Z,13.60
2023-05-02T09:19:24.045Z,7.10
2023-05-02T09:21:52.454Z,11.40
2023-05-02T09:24:23.079Z,9.10
2023-05-02T09:27:01.217Z,8.70
2023-05-02T09:29:36.254Z,12.10
2023-05-02T09:32:05.652Z,13.60
2023-05-02T09:34:34.310Z,7.30
2023-05-02T09:37:05.420Z,12.70
2023-05-02T09:39:33.400Z,13.30
2023-05-02T09:42:02.828Z,11.00
2023-05-02T09:44:37.701Z,8.70
2023-05-02T09:47:06.966Z,9.30
2023-05-02T09:49:42.634Z,7.90
2023-05-02T09:52:14.549Z,11.30
2023-05-02T09:54:47.002Z,8.80
2023-05-02T09:57:15.883Z,8.00
2023-05-02T09:59:54.238Z,8.80
2023-05-02T10:02:22.894Z,7.90
2023-05-02T10:04:51.842Z,11.30
2023-05-02T10:07:20.304Z,13.90
2023-05-02T10:09:49.684Z,13.30
2023-05-02T10:12:18.360Z,9.30
2023-05-02T10:14:49.404Z,11.20
2023-05-02T10:17:28.317Z,9.20
2023-05-02T10:20:06.422Z,8.80
2023-05-02T10:22:35.267Z,4.40
2023-05-02T10:25:03.888Z,7.70
2023-05-02T10:27:32.467Z,6.70
2023-05-02T10:30:01.645Z,3.20
2023-05-02T10:32:29.759Z,9.90
2023-05-02T10:34:57.978Z,8.10
2023-05-02T10:37:26.746Z,8.00
2023-05-02T10:39:54.923Z,5.00
2023-05-02T10:42:23.770Z,6.10
2023-05-02T10:44:51.722Z,6.50
2023-05-02T10:47:27.229Z,6.70
2023-05-02T10:49:57.245Z,3.70
2023-05-02T10:52:31.707Z,8.30
2023-05-02T10:55:20.711Z,6.60
2023-05-02T10:58:00.870Z,7.40
2023-05-02T11:00:33.978Z,9.10
2023-05-02T11:03:02.844Z,9.10
2023-05-02T11:05:30.882Z,4.60
2023-05-02T11:08:19.440Z,5.50
2023-05-02T11:10:48.953Z,6.00
2023-05-02T11:13:16.797Z,3.80
2023-05-02T11:15:54.617Z,5.10
2023-05-02T11:18:22.509Z,8.00
2023-05-02T11:20:50.381Z,6.60
2023-05-02T11:23:22.746Z,9.30
2023-05-02T11:25:51.375Z,5.50
2023-05-02T11:28:34.919Z,4.60
2023-05-02T11:31:03.412Z,3.80
2023-05-02T11:33:31.411Z,4.90
2023-05-02T11:35:59.307Z,5.40
2023-05-02T11:38:35.057Z,2.90
2023-05-02T11:41:04.408Z,4.90
2023-05-02T11:43:32.753Z,6.50
2023-05-02T11:46:02.199Z,4.70
2023-05-02T11:48:30.812Z,3.30
2023-05-02T11:51:02.397Z,4.90
2023-05-02T11:53:40.736Z,8.80
2023-05-02T11:56:11.932Z,6.50
2023-05-02T11:58:41.804Z,2.90
2023-05-02T12:01:16.405Z,4.00
2023-05-02T12:03:46.850Z,2.70
2023-05-02T12:06:16.502Z,3.00
2023-05-02T12:08:44.526Z,5.60
2023-05-02T12:11:16.294Z,2.40
2023-05-02T12:13:53.372Z,2.30
2023-05-02T12:16:21.414Z,3.00
2023-05-02T12:18:49.514Z,2.70
2023-05-02T12:21:17.983Z,3.40
2023-05-02T12:23:46.455Z,3.00
2023-05-02T12:26:21.533Z,2.80
2023-05-02T12:28:54.824Z,6.00
2023-05-02T12:31:23.922Z,3.10
2023-05-02T12:33:52.744Z,12.00
2023-05-02T12:36:20.859Z,3.10
2023-05-02T12:38:51.135Z,4.80
2023-05-02T12:41:34.909Z,4.90
2023-05-02T12:44:10.431Z,4.00
2023-05-02T12:46:38.759Z,4.90
2023-05-02T12:49:08.472Z,3.90
2023-05-02T12:51:36.856Z,3.60
2023-05-02T12:54:04.891Z,5.50
2023-05-02T12:56:39.414Z,10.60
2023-05-02T12:59:08.054Z,5.60
2023-05-02T13:01:36.175Z,5.90
2023-05-02T13:04:05.755Z,9.60
2023-05-02T13:06:33.755Z,6.40
2023-05-02T13:09:01.945Z,6.40
2023-05-02T13:11:29.653Z,8.10
2023-05-02T13:13:57.478Z,6.60
2023-05-02T13:16:26.057Z,9.10
2023-05-02T13:18:54.051Z,4.50
2023-05-02T13:21:21.929Z,11.80
2023-05-02T13:23:51.920Z,6.10
2023-05-02T13:26:19.651Z,7.70
2023-05-02T13:28:47.546Z,11.00
2023-05-02T13:31:15.847Z,7.90
2023-05-02T13:33:43.858Z,7.40
2023-05-02T13:36:11.658Z,10.30
2023-05-02T13:38:39.631Z,7.90
2023-05-02T13:41:07.369Z,6.40
2023-05-02T13:43:35.105Z,8.30
2023-05-02T13:46:03.125Z,8.80
2023-05-02T13:48:31.570Z,8.90
2023-05-02T13:50:59.288Z,7.50
2023-05-02T13:53:27.052Z,5.70
2023-05-02T13:55:54.967Z,5.20
2023-05-02T13:58:22.717Z,12.60
2023-05-02T14:00:50.554Z,4.60
2023-05-02T14:03:18.424Z,5.50
2023-05-02T14:05:46.376Z,6.10
2023-05-02T14:08:18.395Z,4.10
2023-05-02T14:10:46.432Z,3.70
2023-05-02T14:13:14.288Z,4.30
2023-05-02T14:15:42.020Z,4.00
2023-05-02T14:18:10.289Z,7.00
2023-05-02T14:20:38.172Z,5.40
2023-05-02T14:23:07.459Z,4.30
2023-05-02T14:25:35.973Z,4.80
2023-05-02T14:28:03.979Z,3.50
2023-05-02T14:30:31.988Z,5.50
2023-05-02T14:32:59.811Z,6.60
2023-05-02T14:35:27.729Z,2.80
2023-05-02T14:37:55.614Z,3.10
2023-05-02T14:40:23.509Z,2.60
2023-05-02T14:42:51.369Z,2.40
2023-05-02T14:45:19.126Z,2.90
2023-05-02T14:47:47.148Z,3.70
2023-05-02T14:50:15.094Z,2.90
2023-05-02T14:52:43.249Z,1.90
2023-05-02T14:55:11.638Z,12.70
2023-05-02T14:57:42.158Z,7.80
2023-05-02T15:00:10.493Z,4.90
2023-05-02T15:02:38.749Z,2.90
2023-05-02T15:05:12.068Z,4.10
2023-05-02T15:07:43.072Z,2.70
2023-05-02T15:10:11.093Z,3.40
2023-05-02T15:12:38.859Z,3.30
2023-05-02T15:15:07.082Z,1.90
2023-05-02T15:17:35.059Z,5.60
2023-05-02T15:20:04.621Z,2.20
2023-05-02T15:22:32.891Z,1.90
2023-05-02T15:25:01.248Z,1.20
2023-05-02T15:27:30.298Z,1.30
2023-05-02T15:29:58.482Z,5.00
2023-05-02T15:32:26.436Z,3.50
2023-05-02T15:34:54.357Z,4.90
2023-05-02T15:37:22.232Z,2.60
2023-05-02T15:39:50.801Z,1.60
2023-05-02T15:42:18.699Z,2.40
2023-05-02T15:44:46.553Z,4.70
2023-05-02T15:47:14.331Z,3.60
2023-05-02T15:49:42.738Z,4.40
2023-05-02T15:52:10.549Z,1.20
2023-05-02T15:54:39.922Z,5.90
2023-05-02T15:57:07.968Z,2.70
2023-05-02T15:59:36.094Z,2.30
2023-05-02T16:02:03.863Z,3.40
2023-05-02T16:04:34.983Z,3.70
2023-05-02T16:07:02.816Z,2.90
2023-05-02T16:09:33.117Z,2.90
2023-05-02T16:12:03.944Z,1.30
2023-05-02T16:14:31.849Z,4.70
2023-05-02T16:16:59.879Z,3.00
2023-05-02T16:19:27.740Z,9.70
2023-05-02T16:21:55.636Z,2.80
2023-05-02T16:24:23.508Z,2.90
2023-05-02T16:26:51.382Z,1.70
2023-05-02T16:29:19.208Z,5.30
2023-05-02T16:31:46.977Z,6.60
2023-05-02T16:34:15.011Z,4.50
2023-05-02T16:36:46.851Z,3.30
2023-05-02T16:39:14.900Z,4.90
2023-05-02T16:41:42.752Z,3.70
2023-05-02T16:44:10.921Z,2.80
2023-05-02T16:46:39.064Z,3.20
2023-05-02T16:49:07.380Z,4.70
2023-05-02T16:51:35.175Z,4.90
2023-05-02T16:54:03.293Z,4.70
2023-05-02T16:56:31.253Z,5.10
2023-05-02T16:58:59.434Z,3.10
2023-05-02T17:01:27.159Z,5.90
2023-05-02T17:03:55.243Z,3.50
2023-05-02T17:06:23.117Z,6.00
2023-05-02T17:08:51.281Z,6.80
2023-05-02T17:11:19.104Z,6.20
2023-05-02T17:13:49.726Z,7.10
2023-05-02T17:16:23.803Z,4.20
2023-05-02T17:18:52.080Z,9.80
2023-05-02T17:21:20.018Z,4.10
2023-05-02T17:23:47.898Z,7.70
2023-05-02T17:26:15.761Z,3.80
2023-05-02T17:28:45.004Z,5.20
2023-05-02T17:31:13.278Z,7.30
2023-05-02T17:33:42.290Z,6.70
2023-05-02T17:36:10.719Z,3.20
2023-05-02T17:38:38.794Z,8.50
2023-05-02T17:41:06.520Z,5.90
2023-05-02T17:43:34.318Z,5.30
2023-05-02T17:46:06.596Z,5.80
2023-05-02T17:48:34.444Z,4.90
2023-05-02T17:51:02.533Z,4.90
2023-05-02T17:53:30.880Z,11.20
2023-05-02T17:56:01.731Z,22.90
2023-05-02T17:58:30.232Z,11.30
2023-05-02T18:00:58.489Z,13.10
2023-05-02T18:03:26.577Z,9.50
2023-05-02T18:05:54.427Z,8.60
2023-05-02T18:08:22.330Z,5.20
2023-05-02T18:10:50.172Z,6.10
2023-05-02T18:13:17.950Z,11.80
2023-05-02T18:15:47.460Z,9.90
2023-05-02T18:18:15.314Z,3.50
2023-05-02T18:20:43.114Z,6.60
2023-05-02T18:23:10.981Z,7.80
2023-05-02T18:25:38.875Z,6.00
2023-05-02T18:28:11.692Z,8.10
2023-05-02T18:30:40.161Z,5.70
2023-05-02T18:33:09.115Z,9.10
2023-05-02T18:35:37.594Z,8.80
2023-05-02T18:38:08.670Z,9.90
2023-05-02T18:40:36.642Z,8.40
2023-05-02T18:43:04.963Z,8.00
2023-05-02T18:45:33.304Z,7.60
2023-05-02T18:48:01.300Z,7.00
2023-05-02T18:50:29.298Z,10.10
2023-05-02T18:52:57.474Z,7.50
2023-05-02T18:55:25.549Z,9.10
2023-05-02T18:57:53.475Z,8.20
2023-05-02T19:00:21.574Z,10.30
2023-05-02T19:02:51.459Z,8.30
2023-05-02T19:05:19.353Z,12.20
2023-05-02T19:07:47.409Z,12.80
2023-05-02T19:10:15.800Z,13.70
2023-05-02T19:12:43.996Z,8.70
2023-05-02T19:15:11.681Z,8.90
2023-05-02T19:17:40.031Z,8.90
2023-05-02T19:20:08.288Z,11.70
2023-05-02T19:22:37.261Z,7.50
2023-05-02T19:25:05.542Z,6.40
2023-05-02T19:27:33.283Z,6.40
2023-05-02T19:30:01.160Z,8.70
2023-05-02T19:32:29.043Z,6.50
2023-05-02T19:34:56.978Z,11.90
2023-05-02T19:37:24.811Z,9.30
2023-05-02T19:39:52.763Z,7.80
2023-05-02T19:42:20.556Z,6.80
2023-05-02T19:44:49.258Z,9.90
2023-05-02T19:47:17.051Z,7.60
2023-05-02T19:49:45.027Z,10.70
2023-05-02T19:52:12.889Z,8.00
2023-05-02T19:54:40.844Z,6.50
2023-05-02T19:57:08.739Z,9.50
2023-05-02T19:59:40.085Z,6.50
2023-05-02T20:02:09.473Z,7.70
2023-05-02T20:04:37.322Z,8.10
2023-05-02T20:07:05.435Z,4.10
2023-05-02T20:09:34.037Z,7.40
2023-05-02T20:12:01.955Z,6.40
2023-05-02T20:14:30.089Z,7.90
2023-05-02T20:17:01.706Z,6.10
2023-05-02T20:19:32.331Z,6.90
2023-05-02T20:22:00.298Z,9.80
2023-05-02T20:24:28.269Z,6.10
2023-05-02T20:26:59.101Z,9.50
2023-05-02T20:29:29.574Z,9.70
2023-05-02T20:31:57.781Z,10.70
2023-05-02T20:34:25.543Z,5.90
2023-05-02T20:36:53.449Z,8.60
2023-05-02T20:39:22.000Z,5.70
2023-05-02T20:41:50.054Z,8.10
2023-05-02T20:44:18.709Z,11.80
2023-05-02T20:46:46.510Z,7.10
2023-05-02T20:49:14.415Z,8.50
2023-05-02T20:51:42.119Z,10.90
2023-05-02T20:54:10.785Z,8.70
2023-05-02T20:56:38.635Z,7.80
2023-05-02T20:59:06.412Z,11.10
2023-05-02T21:01:34.388Z,10.30
2023-05-02T21:04:04.037Z,7.10
2023-05-02T21:06:32.953Z,7.50
2023-05-02T21:09:02.328Z,11.90
2023-05-02T21:11:30.421Z,8.70
2023-05-02T21:13:58.160Z,14.00
2023-05-02T21:16:25.969Z,13.30
2023-05-02T21:18:54.972Z,7.70
2023-05-02T21:21:22.997Z,8.30
2023-05-02T21:23:50.885Z,7.60
2023-05-02T21:26:18.609Z,11.80
2023-05-02T21:28:46.596Z,10.90
2023-05-02T21:31:14.451Z,11.50
2023-05-02T21:33:42.320Z,10.60
2023-05-02T21:36:10.491Z,10.20
2023-05-02T21:38:38.137Z,9.20
2023-05-02T21:41:06.133Z,12.70
2023-05-02T21:43:34.933Z,9.70
2023-05-02T21:46:02.775Z,12.90
2023-05-02T21:48:30.461Z,11.30
2023-05-02T21:50:58.104Z,13.80
2023-05-02T21:53:27.204Z,9.50
2023-05-02T21:55:55.058Z,7.30
2023-05-02T21:58:22.854Z,9.30
2023-05-02T22:00:50.605Z,8.70
2023-05-02T22:03:18.692Z,7.50
2023-05-02T22:05:48.380Z,12.50
2023-05-02T22:08:16.168Z,7.30
2023-05-02T22:10:44.022Z,8.20
2023-05-02T22:13:12.617Z,8.20
2023-05-02T22:15:45.635Z,7.00
2023-05-02T22:18:14.270Z,7.80
2023-05-02T22:20:42.385Z,6.60
2023-05-02T22:23:10.487Z,10.40
2023-05-02T22:25:40.296Z,5.80
2023-05-02T22:28:11.217Z,7.80
2023-05-02T22:30:39.808Z,9.90
2023-05-02T22:33:08.168Z,6.00
2023-05-02T22:35:37.736Z,7.50
2023-05-02T22:38:08.915Z,9.40
2023-05-02T22:40:36.749Z,16.40
2023-05-02T22:43:04.570Z,11.00
2023-05-02T22:45:32.544Z,10.40
2023-05-02T22:48:00.334Z,9.40
2023-05-02T22:50:28.399Z,9.60
2023-05-02T22:52:59.720Z,12.50
2023-05-02T22:55:27.477Z,7.90
2023-05-02T22:57:55.300Z,8.30
2023-05-02T23:00:23.589Z,9.50
2023-05-02T23:02:51.883Z,10.60
2023-05-02T23:05:19.919Z,6.00
2023-05-02T23:07:48.571Z,12.60
2023-05-02T23:10:16.519Z,5.60
2023-05-02T23:12:44.307Z,9.50
2023-05-02T23:15:12.166Z,7.40
2023-05-02T23:17:41.213Z,8.40
2023-05-02T23:20:12.806Z,8.10
2023-05-02T23:22:44.233Z,9.00
2023-05-02T23:25:12.557Z,8.90
2023-05-02T23:27:40.668Z,11.80
2023-05-02T23:30:08.712Z,11.00
2023-05-02T23:32:36.828Z,9.50
2023-05-02T23:35:05.888Z,10.80
2023-05-02T23:37:33.971Z,8.00
2023-05-02T23:40:02.086Z,7.30
2023-05-02T23:42:30.223Z,6.70
2023-05-02T23:44:58.157Z,10.20
2023-05-02T23:47:28.872Z,7.30
2023-05-02T23:49:56.930Z,11.80
2023-05-02T23:52:24.739Z,8.40
2023-05-02T23:54:52.720Z,5.90
2023-05-02T23:57:20.475Z,15.00
2023-05-02T23:59:48.286Z,10.70
